Time;durP1;ratioP1;P1;durP2;ratioP2;P2;SDS_P1;SDS_P2;PMS_P1;PMS_P2;Temp;Humidity;BMP_temperature;BMP_pressure;BME280_temperature;BME280_humidity;BME280_pressure;Samples;Min_cycle;Max_cycle;Signal;HPM_P1;HPM_P2
2021/05/28 00:01:53;;;;;;;0.88;0.82;;;22.40;57.90;;;;;;5050830;28;20025;-36
2021/05/28 00:04:19;;;;;;;0.93;0.63;;;22.40;57.80;;;;;;5049322;28;20613;-34
2021/05/28 00:06:44;;;;;;;0.85;0.60;;;22.40;57.80;;;;;;5052366;28;20028;-39
2021/05/28 00:09:10;;;;;;;0.63;0.60;;;22.30;57.80;;;;;;5053436;28;20070;-33
2021/05/28 00:11:35;;;;;;;0.70;0.70;;;22.40;57.90;;;;;;5052042;28;20029;-33
2021/05/28 00:14:01;;;;;;;1.13;0.60;;;22.30;57.80;;;;;;5052369;28;20059;-35
2021/05/28 00:16:26;;;;;;;0.73;0.73;;;22.30;58.10;;;;;;5049558;28;20044;-30
2021/05/28 00:18:53;;;;;;;0.70;0.70;;;22.30;57.90;;;;;;5067287;28;20032;-35
2021/05/28 00:21:18;;;;;;;0.70;0.57;;;22.30;58.40;;;;;;5057130;28;20509;-36
2021/05/28 00:23:44;;;;;;;1.00;0.80;;;22.40;57.70;;;;;;5055624;28;20060;-38
2021/05/28 00:26:10;;;;;;;1.88;1.00;;;22.30;57.80;;;;;;5056147;28;20106;-41
2021/05/28 00:28:35;;;;;;;1.40;0.70;;;22.40;57.70;;;;;;5054445;28;20021;-35
2021/05/28 00:31:01;;;;;;;0.73;0.70;;;22.30;57.70;;;;;;5052445;28;20738;-35
2021/05/28 00:33:27;;;;;;;0.65;0.65;;;22.40;57.70;;;;;;5057139;28;20025;-38
2021/05/28 00:35:52;;;;;;;0.70;0.70;;;22.40;57.70;;;;;;5056939;28;20491;-37
2021/05/28 00:38:18;;;;;;;1.42;0.90;;;22.40;57.70;;;;;;5037781;28;20037;-38
2021/05/28 00:40:43;;;;;;;1.00;0.90;;;22.40;57.70;;;;;;5055622;28;20082;-36
2021/05/28 00:43:09;;;;;;;0.90;0.90;;;22.40;57.60;;;;;;5051291;28;20136;-31
2021/05/28 00:45:34;;;;;;;1.08;0.95;;;22.40;57.60;;;;;;5057200;28;20667;-35
2021/05/28 00:48:00;;;;;;;1.33;1.00;;;22.40;57.60;;;;;;5062510;28;20052;-33
2021/05/28 00:50:29;;;;;;;0.73;0.73;;;22.40;57.50;;;;;;5061458;28;20079;-35
2021/05/28 00:52:56;;;;;;;1.02;0.90;;;22.40;57.50;;;;;;5055154;28;20038;-35
2021/05/28 00:55:22;;;;;;;0.93;0.73;;;22.50;57.50;;;;;;5020363;28;20021;-35
2021/05/28 00:57:48;;;;;;;1.35;1.00;;;22.40;57.60;;;;;;5036657;28;20025;-36
2021/05/28 01:00:14;;;;;;;0.80;0.80;;;22.40;57.60;;;;;;5061431;28;20056;-34
2021/05/28 01:02:39;;;;;;;1.10;0.70;;;22.40;57.50;;;;;;5055041;28;20537;-34
2021/05/28 01:05:05;;;;;;;0.88;0.88;;;22.40;57.60;;;;;;5054924;28;20033;-34
2021/05/28 01:07:31;;;;;;;1.10;0.95;;;22.40;57.60;;;;;;5052767;28;20372;-36
2021/05/28 01:09:57;;;;;;;0.75;0.75;;;22.40;57.70;;;;;;5052761;28;20070;-37
2021/05/28 01:12:22;;;;;;;0.80;0.80;;;22.30;57.70;;;;;;5054534;28;20036;-37
2021/05/28 01:14:49;;;;;;;0.82;0.82;;;22.30;57.70;;;;;;5052791;28;20068;-34
2021/05/28 01:17:15;;;;;;;0.70;0.70;;;22.40;57.70;;;;;;5057518;28;20025;-34
2021/05/28 01:19:41;;;;;;;0.80;0.80;;;22.30;57.70;;;;;;5066870;28;20021;-34
2021/05/28 01:22:07;;;;;;;0.70;0.70;;;22.30;57.70;;;;;;5055755;28;20077;-36
2021/05/28 01:24:32;;;;;;;0.95;0.95;;;22.30;57.70;;;;;;5046315;28;20032;-39
2021/05/28 01:26:59;;;;;;;0.95;0.88;;;22.30;57.60;;;;;;5045169;28;20434;-36
2021/05/28 01:29:24;;;;;;;0.70;0.70;;;22.30;57.60;;;;;;5044808;28;20029;-35
2021/05/28 01:31:50;;;;;;;0.80;0.80;;;22.30;57.70;;;;;;5049347;28;20044;-32
2021/05/28 01:34:16;;;;;;;1.10;1.00;;;22.30;57.70;;;;;;5065780;28;20057;-38
2021/05/28 01:36:41;;;;;;;0.82;0.82;;;22.30;57.70;;;;;;5066562;28;20430;-36
2021/05/28 01:39:07;;;;;;;0.93;0.82;;;22.30;57.60;;;;;;5054586;28;20029;-36
2021/05/28 01:41:32;;;;;;;0.98;0.90;;;22.30;57.60;;;;;;5053080;28;20107;-34
2021/05/28 01:43:58;;;;;;;1.02;0.90;;;22.30;57.60;;;;;;5034969;28;20039;-31
2021/05/28 01:46:24;;;;;;;1.05;0.95;;;22.30;57.40;;;;;;5051278;28;20032;-33
2021/05/28 01:48:49;;;;;;;0.88;0.88;;;22.30;58.10;;;;;;5050530;28;20469;-39
2021/05/28 01:51:15;;;;;;;0.88;0.88;;;22.30;57.60;;;;;;5054886;28;20044;-34
2021/05/28 01:53:41;;;;;;;0.70;0.70;;;22.30;57.60;;;;;;5053938;28;20039;-33
2021/05/28 01:56:07;;;;;;;0.70;0.70;;;22.30;57.50;;;;;;5054031;28;20021;-35
2021/05/28 01:58:32;;;;;;;0.98;0.98;;;22.30;57.50;;;;;;5051957;28;20681;-37
2021/05/28 02:00:58;;;;;;;0.70;0.70;;;22.30;57.60;;;;;;5011215;28;20053;-35
2021/05/28 02:03:24;;;;;;;1.15;0.80;;;22.30;57.60;;;;;;5016065;28;20029;-35
2021/05/28 02:05:50;;;;;;;0.88;0.88;;;22.20;57.50;;;;;;5014525;28;20530;-37
2021/05/28 02:08:16;;;;;;;0.80;0.80;;;22.30;57.60;;;;;;5014453;28;20022;-36
2021/05/28 02:10:42;;;;;;;0.80;0.80;;;22.20;57.50;;;;;;5012249;28;20017;-37
2021/05/28 02:13:07;;;;;;;1.00;0.85;;;22.20;57.60;;;;;;5019404;28;20411;-34
2021/05/28 02:15:33;;;;;;;0.80;0.73;;;22.30;57.60;;;;;;5016132;28;20088;-36
2021/05/28 02:17:59;;;;;;;0.93;0.73;;;22.20;57.50;;;;;;5011516;28;20029;-30
2021/05/28 02:20:24;;;;;;;0.80;0.80;;;22.20;57.50;;;;;;5014063;28;20038;-38
2021/05/28 02:22:50;;;;;;;0.82;0.82;;;22.20;57.60;;;;;;5012937;28;20044;-37
2021/05/28 02:25:16;;;;;;;0.70;0.70;;;22.20;57.60;;;;;;5025487;28;20547;-39
2021/05/28 02:27:42;;;;;;;0.70;0.70;;;22.20;57.60;;;;;;5015216;28;20113;-35
2021/05/28 02:30:08;;;;;;;0.80;0.80;;;22.20;57.60;;;;;;5014518;28;20061;-36
2021/05/28 02:32:33;;;;;;;0.80;0.80;;;22.20;57.60;;;;;;5013525;28;20060;-34
2021/05/28 02:34:59;;;;;;;0.70;0.70;;;22.20;57.70;;;;;;5013893;28;20105;-37
2021/05/28 02:37:25;;;;;;;0.68;0.68;;;22.20;57.70;;;;;;5009765;28;20472;-39
2021/05/28 02:39:50;;;;;;;0.75;0.75;;;22.20;57.70;;;;;;5009394;28;20091;-40
2021/05/28 02:42:16;;;;;;;0.93;0.90;;;22.20;57.70;;;;;;5014747;28;20034;-34
2021/05/28 02:44:41;;;;;;;0.70;0.70;;;22.20;57.60;;;;;;5013885;28;20037;-36
2021/05/28 02:47:07;;;;;;;0.80;0.80;;;22.20;57.60;;;;;;5011898;28;20710;-34
2021/05/28 02:49:33;;;;;;;1.52;0.70;;;22.20;57.70;;;;;;5024957;28;20037;-36
2021/05/28 02:51:59;;;;;;;0.88;0.88;;;22.10;57.70;;;;;;5010332;28;20400;-36
2021/05/28 02:54:27;;;;;;;0.75;0.75;;;22.10;57.70;;;;;;5015402;28;20034;-35
2021/05/28 02:56:53;;;;;;;0.77;0.77;;;22.10;57.70;;;;;;5012848;28;20484;-36
2021/05/28 02:59:19;;;;;;;0.55;0.55;;;22.20;57.70;;;;;;5028380;28;20060;-36
2021/05/28 03:01:44;;;;;;;1.58;0.80;;;22.10;57.70;;;;;;5013358;28;20021;-35
2021/05/28 03:04:10;;;;;;;0.60;0.60;;;22.10;57.70;;;;;;5009019;28;20104;-35
2021/05/28 03:06:36;;;;;;;0.63;0.63;;;22.10;58.40;;;;;;5014544;28;20112;-35
2021/05/28 03:09:01;;;;;;;0.57;0.57;;;22.10;57.80;;;;;;5013179;28;20431;-35
2021/05/28 03:11:27;;;;;;;0.65;0.65;;;22.10;57.90;;;;;;5012987;28;20026;-35
2021/05/28 03:13:53;;;;;;;0.77;0.77;;;22.10;57.80;;;;;;5013109;28;20030;-35
2021/05/28 03:16:18;;;;;;;0.60;0.60;;;22.10;57.90;;;;;;5009132;28;20475;-34
2021/05/28 03:18:50;;;;;;;0.60;0.60;;;22.10;57.90;;;;;;5025515;28;20033;-38
2021/05/28 03:23:58;;;;;;;0.60;0.60;;;22.10;57.90;;;;;;5012545;28;20137;-34
2021/05/28 03:26:24;;;;;;;0.68;0.68;;;22.10;57.80;;;;;;5011715;28;20610;-36
2021/05/28 03:28:50;;;;;;;0.60;0.60;;;22.10;57.80;;;;;;5004065;28;20042;-36
2021/05/28 03:31:16;;;;;;;0.80;0.80;;;22.10;57.80;;;;;;5024326;28;20163;-35
2021/05/28 03:33:42;;;;;;;1.20;0.70;;;22.10;57.80;;;;;;5014648;28;20492;-37
2021/05/28 03:36:07;;;;;;;0.80;0.80;;;22.00;57.80;;;;;;5012845;28;20057;-38
2021/05/28 03:38:33;;;;;;;0.52;0.52;;;22.10;57.80;;;;;;5010662;28;20030;-38
2021/05/28 03:40:59;;;;;;;0.70;0.70;;;22.00;57.80;;;;;;5009543;28;20026;-35
2021/05/28 03:43:25;;;;;;;0.70;0.70;;;22.10;57.80;;;;;;5010151;28;20054;-37
2021/05/28 03:45:50;;;;;;;0.75;0.75;;;22.00;57.70;;;;;;5012109;28;20028;-37
2021/05/28 03:48:16;;;;;;;0.65;0.65;;;22.00;57.70;;;;;;5024454;28;20032;-35
2021/05/28 03:50:42;;;;;;;0.70;0.70;;;22.10;57.80;;;;;;5016321;28;20018;-35
2021/05/28 03:53:07;;;;;;;0.70;0.70;;;22.00;57.70;;;;;;5014300;28;20048;-35
2021/05/28 03:55:33;;;;;;;1.10;0.60;;;22.00;57.70;;;;;;5015263;28;20025;-34
2021/05/28 03:57:58;;;;;;;0.75;0.60;;;22.00;58.30;;;;;;5014235;28;20079;-38
2021/05/28 04:00:25;;;;;;;0.50;0.50;;;22.00;57.70;;;;;;5055416;28;20045;-36
2021/05/28 04:02:51;;;;;;;0.77;0.73;;;22.00;57.70;;;;;;5056696;28;20041;-37
2021/05/28 04:05:16;;;;;;;2.15;0.70;;;22.00;57.70;;;;;;5056480;28;20032;-35
2021/05/28 04:07:42;;;;;;;0.80;0.80;;;22.00;57.80;;;;;;5055373;28;20104;-42
2021/05/28 04:10:08;;;;;;;0.50;0.50;;;21.90;57.70;;;;;;5050489;28;20028;-35
2021/05/28 04:12:34;;;;;;;0.63;0.52;;;21.90;57.70;;;;;;5071016;28;20059;-34
2021/05/28 04:15:00;;;;;;;1.75;0.65;;;22.00;57.80;;;;;;5062959;28;20441;-40
2021/05/28 04:17:25;;;;;;;0.50;0.50;;;21.90;57.80;;;;;;5064987;28;20032;-33
2021/05/28 04:19:51;;;;;;;0.60;0.60;;;22.00;57.80;;;;;;5062122;28;20097;-37
2021/05/28 04:22:16;;;;;;;0.55;0.55;;;22.00;57.70;;;;;;5051160;28;20167;-35
2021/05/28 04:24:42;;;;;;;0.52;0.52;;;22.00;57.70;;;;;;5070479;28;20024;-35
2021/05/28 04:27:08;;;;;;;0.50;0.50;;;22.00;58.30;;;;;;5055763;28;20071;-35
2021/05/28 04:29:33;;;;;;;0.70;0.70;;;21.90;57.70;;;;;;5055800;28;20036;-35
2021/05/28 04:31:59;;;;;;;0.70;0.70;;;21.70;57.80;;;;;;5055346;28;20020;-35
2021/05/28 04:34:24;;;;;;;0.50;0.50;;;21.50;58.60;;;;;;5052501;28;20415;-35
2021/05/28 04:36:50;;;;;;;0.60;0.60;;;21.50;58.60;;;;;;5054567;28;20394;-36
2021/05/28 04:39:16;;;;;;;0.73;0.73;;;21.70;58.90;;;;;;5034090;28;20534;-35
2021/05/28 04:41:41;;;;;;;1.50;0.73;;;21.70;58.40;;;;;;5052165;28;20107;-33
2021/05/28 04:44:07;;;;;;;0.85;0.80;;;21.60;58.70;;;;;;5055533;28;20076;-35
2021/05/28 04:46:33;;;;;;;2.35;1.05;;;21.70;59.70;;;;;;5054148;28;20029;-35
2021/05/28 04:48:59;;;;;;;1.15;0.77;;;21.60;60.40;;;;;;5052878;28;20513;-34
2021/05/28 04:51:24;;;;;;;0.90;0.90;;;21.50;59.70;;;;;;5057151;28;20027;-35
2021/05/28 04:53:50;;;;;;;1.48;0.98;;;21.40;59.60;;;;;;5055524;28;20602;-34
2021/05/28 04:56:17;;;;;;;0.77;0.77;;;21.60;60.00;;;;;;5055065;28;20124;-34
2021/05/28 04:58:43;;;;;;;3.03;0.90;;;21.70;60.30;;;;;;5033930;28;20020;-35
2021/05/28 05:01:08;;;;;;;1.33;0.70;;;21.70;59.60;;;;;;5050564;28;20095;-34
2021/05/28 05:03:34;;;;;;;2.30;0.70;;;21.50;59.50;;;;;;5056681;28;20031;-34
2021/05/28 05:05:59;;;;;;;1.98;0.70;;;21.40;60.80;;;;;;5052716;28;20082;-35
2021/05/28 05:08:26;;;;;;;1.00;0.70;;;21.30;60.10;;;;;;5056999;28;20065;-35
2021/05/28 05:10:51;;;;;;;1.52;0.75;;;21.50;59.90;;;;;;5053628;28;20082;-36
2021/05/28 05:13:17;;;;;;;1.00;0.70;;;21.70;59.80;;;;;;5052917;28;20483;-34
2021/05/28 05:15:42;;;;;;;2.17;1.00;;;21.80;59.50;;;;;;5037927;28;20036;-35
2021/05/28 05:18:08;;;;;;;0.82;0.82;;;21.80;59.20;;;;;;5039981;28;20120;-35
2021/05/28 05:20:35;;;;;;;0.85;0.80;;;21.70;59.20;;;;;;5049565;28;20021;-35
2021/05/28 05:23:01;;;;;;;1.90;0.77;;;21.80;59.20;;;;;;5054088;28;20021;-36
2021/05/28 05:25:27;;;;;;;0.98;0.85;;;21.70;59.20;;;;;;5051905;28;20037;-34
2021/05/28 05:27:52;;;;;;;1.10;0.60;;;21.80;59.10;;;;;;5053225;28;20029;-35
2021/05/28 05:30:19;;;;;;;0.60;0.55;;;21.70;59.10;;;;;;5056396;28;20033;-34
2021/05/28 05:32:45;;;;;;;1.40;0.80;;;21.80;59.00;;;;;;5058099;28;20107;-34
2021/05/28 05:35:11;;;;;;;2.47;0.82;;;21.80;58.80;;;;;;5061360;28;20170;-34
2021/05/28 05:37:36;;;;;;;3.13;0.90;;;21.80;58.60;;;;;;5049875;28;20116;-34
2021/05/28 05:40:02;;;;;;;1.40;0.90;;;21.80;58.50;;;;;;5055674;28;20046;-35
2021/05/28 05:42:28;;;;;;;1.67;0.93;;;21.80;59.00;;;;;;5050959;28;20607;-35
2021/05/28 05:44:53;;;;;;;1.02;0.75;;;21.80;58.80;;;;;;5061700;28;20050;-35
2021/05/28 05:47:19;;;;;;;1.42;0.63;;;21.70;58.90;;;;;;5061067;28;20036;-34
2021/05/28 05:49:44;;;;;;;0.60;0.60;;;21.60;59.00;;;;;;5054124;28;20256;-34
2021/05/28 05:52:10;;;;;;;0.88;0.70;;;21.60;59.10;;;;;;5050677;28;20060;-36
2021/05/28 05:54:35;;;;;;;0.95;0.60;;;21.70;58.80;;;;;;5055630;28;20025;-34
2021/05/28 05:57:01;;;;;;;1.60;0.63;;;21.80;58.60;;;;;;5054421;28;20502;-34
2021/05/28 05:59:29;;;;;;;1.15;0.75;;;21.80;58.40;;;;;;5053927;28;20045;-36
2021/05/28 06:01:54;;;;;;;2.28;0.80;;;21.80;58.10;;;;;;5050781;28;20112;-36
2021/05/28 06:04:20;;;;;;;1.92;1.05;;;21.90;58.10;;;;;;5049889;28;20491;-35
2021/05/28 06:06:45;;;;;;;3.17;0.90;;;21.90;58.60;;;;;;5054122;28;20402;-38
2021/05/28 06:09:11;;;;;;;0.93;0.63;;;21.70;58.60;;;;;;5055035;28;20112;-36
2021/05/28 06:11:39;;;;;;;4.15;0.77;;;21.50;59.10;;;;;;5048948;28;20035;-33
2021/05/28 06:14:08;;;;;;;1.33;1.15;;;21.30;59.20;;;;;;5053459;28;20024;-36
2021/05/28 06:16:33;;;;;;;0.85;0.60;;;21.30;59.10;;;;;;5052131;28;20032;-37
2021/05/28 06:18:59;;;;;;;1.10;0.63;;;21.50;58.70;;;;;;5051002;28;20025;-36
2021/05/28 06:21:25;;;;;;;0.73;0.73;;;21.60;60.10;;;;;;5055590;28;20095;-37
2021/05/28 06:23:50;;;;;;;0.77;0.68;;;21.50;59.40;;;;;;5053173;28;20039;-40
2021/05/28 06:26:16;;;;;;;2.30;0.77;;;21.60;59.20;;;;;;5053385;28;20487;-32
2021/05/28 06:28:41;;;;;;;1.10;0.95;;;21.40;59.30;;;;;;5052800;28;20027;-38
2021/05/28 06:31:07;;;;;;;4.22;0.93;;;21.40;59.30;;;;;;5049134;28;20538;-35
2021/05/28 06:33:33;;;;;;;1.73;0.68;;;21.50;58.70;;;;;;5054468;28;20021;-38
2021/05/28 06:35:58;;;;;;;2.08;0.77;;;21.60;58.60;;;;;;5049916;28;20048;-34
2021/05/28 06:38:24;;;;;;;4.55;0.70;;;21.70;59.50;;;;;;5038497;28;20052;-34
2021/05/28 06:40:49;;;;;;;0.80;0.70;;;21.40;58.70;;;;;;5046174;28;20047;-35
2021/05/28 06:43:15;;;;;;;2.40;0.77;;;21.30;59.40;;;;;;5048496;28;20029;-34
2021/05/28 06:45:40;;;;;;;1.63;0.82;;;21.20;59.90;;;;;;5054531;28;20135;-35
2021/05/28 06:48:08;;;;;;;2.05;0.80;;;21.20;59.80;;;;;;5052797;28;20028;-35
2021/05/28 06:50:34;;;;;;;2.03;0.90;;;21.20;60.20;;;;;;5052955;28;20040;-31
2021/05/28 06:53:00;;;;;;;2.97;0.90;;;21.10;59.70;;;;;;5053225;28;20020;-34
2021/05/28 06:55:25;;;;;;;1.08;0.70;;;21.10;59.70;;;;;;5048795;28;20037;-35
2021/05/28 06:57:51;;;;;;;0.73;0.73;;;21.10;60.00;;;;;;5051595;28;20544;-34
2021/05/28 07:00:17;;;;;;;1.80;0.70;;;21.10;60.10;;;;;;5053998;28;20140;-35
2021/05/28 07:02:43;;;;;;;2.08;0.90;;;21.10;60.00;;;;;;5052204;28;20502;-35
2021/05/28 07:05:09;;;;;;;3.33;0.80;;;21.10;60.00;;;;;;5052801;28;20087;-34
2021/05/28 07:07:35;;;;;;;0.77;0.70;;;21.10;59.80;;;;;;5051019;28;20044;-33
2021/05/28 07:10:01;;;;;;;1.77;0.90;;;21.10;60.00;;;;;;5049589;28;20388;-33
2021/05/28 07:12:27;;;;;;;1.63;0.70;;;21.10;60.00;;;;;;5054097;28;20028;-36
2021/05/28 07:14:52;;;;;;;2.15;0.80;;;21.10;59.70;;;;;;5052136;28;20029;-34
2021/05/28 07:17:18;;;;;;;1.80;0.80;;;21.10;59.60;;;;;;5052406;28;20399;-36
2021/05/28 07:19:43;;;;;;;2.60;1.10;;;21.10;59.80;;;;;;5052427;28;20017;-34
2021/05/28 07:22:09;;;;;;;1.02;0.75;;;21.20;59.60;;;;;;5048306;28;20540;-42
2021/05/28 07:24:35;;;;;;;1.13;0.60;;;21.10;59.50;;;;;;5053854;28;20037;-34
2021/05/28 07:27:00;;;;;;;1.33;0.68;;;21.20;59.60;;;;;;5051879;28;20031;-34
2021/05/28 07:29:26;;;;;;;0.98;0.88;;;21.20;59.80;;;;;;5050875;28;20033;-34
2021/05/28 07:31:51;;;;;;;1.48;0.60;;;21.10;59.70;;;;;;5051945;28;20064;-34
2021/05/28 07:34:17;;;;;;;0.70;0.70;;;21.10;60.60;;;;;;5048493;28;20175;-36
2021/05/28 07:36:43;;;;;;;0.57;0.57;;;21.20;59.80;;;;;;5052848;28;20033;-35
2021/05/28 07:39:08;;;;;;;1.35;0.68;;;21.20;60.10;;;;;;5052567;28;20111;-34
2021/05/28 07:41:35;;;;;;;0.93;0.70;;;21.20;60.20;;;;;;5051862;28;20033;-35
2021/05/28 07:44:01;;;;;;;0.80;0.80;;;21.20;60.20;;;;;;5052138;28;20067;-34
2021/05/28 07:46:26;;;;;;;0.60;0.50;;;21.20;60.00;;;;;;5028570;28;20068;-34
2021/05/28 07:48:52;;;;;;;0.88;0.57;;;21.20;61.10;;;;;;5050465;28;20023;-35
2021/05/28 07:51:17;;;;;;;1.00;0.55;;;21.40;59.50;;;;;;5053623;28;20032;-35
2021/05/28 07:53:44;;;;;;;1.50;0.60;;;21.60;58.70;;;;;;5052085;28;20032;-35
2021/05/28 07:56:09;;;;;;;0.70;0.68;;;21.70;58.40;;;;;;5052053;28;20521;-33
2021/05/28 07:58:35;;;;;;;2.22;0.47;;;21.80;58.00;;;;;;5050737;28;20063;-34
2021/05/28 08:01:01;;;;;;;0.50;0.50;;;21.70;58.20;;;;;;5048816;28;20112;-34
2021/05/28 08:03:26;;;;;;;0.95;0.50;;;21.90;58.60;;;;;;5053657;28;20036;-34
2021/05/28 08:05:52;;;;;;;0.75;0.63;;;22.00;58.50;;;;;;5052064;28;20071;-36
2021/05/28 08:08:19;;;;;;;0.63;0.63;;;22.10;57.40;;;;;;5050922;28;20032;-35
2021/05/28 08:10:44;;;;;;;2.00;0.70;;;22.10;57.40;;;;;;5052081;28;20021;-36
2021/05/28 08:13:10;;;;;;;0.70;0.68;;;22.10;57.40;;;;;;5047666;28;20021;-35
2021/05/28 08:15:36;;;;;;;0.43;0.43;;;22.10;57.10;;;;;;5053285;28;20659;-35
2021/05/28 08:18:01;;;;;;;0.88;0.60;;;22.20;57.00;;;;;;5050694;28;20372;-35
2021/05/28 08:20:27;;;;;;;0.70;0.68;;;22.30;56.60;;;;;;5050613;28;20044;-36
2021/05/28 08:22:54;;;;;;;0.60;0.43;;;22.30;56.50;;;;;;5050352;28;20028;-35
2021/05/28 08:25:20;;;;;;;0.70;0.70;;;22.30;57.00;;;;;;5048640;28;20114;-34
2021/05/28 08:27:45;;;;;;;0.60;0.60;;;22.40;56.60;;;;;;5051355;28;20052;-34
2021/05/28 08:30:13;;;;;;;0.50;0.50;;;22.40;56.80;;;;;;5052781;28;20131;-35
2021/05/28 08:32:40;;;;;;;1.35;0.50;;;22.40;56.50;;;;;;5051607;28;20017;-34
2021/05/28 08:35:05;;;;;;;0.50;0.50;;;22.40;56.70;;;;;;5051570;28;20099;-36
2021/05/28 08:37:31;;;;;;;1.73;0.68;;;22.40;56.60;;;;;;5050005;28;20420;-35
2021/05/28 08:39:57;;;;;;;0.57;0.57;;;22.40;56.50;;;;;;5034116;28;20399;-34
2021/05/28 08:42:22;;;;;;;1.20;0.60;;;22.40;56.40;;;;;;5054605;28;20060;-35
2021/05/28 08:44:48;;;;;;;0.80;0.68;;;22.50;56.50;;;;;;5053727;28;20029;-35
2021/05/28 08:47:15;;;;;;;0.63;0.63;;;22.50;56.40;;;;;;5054113;28;20020;-35
2021/05/28 08:49:45;;;;;;;0.85;0.65;;;22.40;56.50;;;;;;5054452;28;20035;-34
2021/05/28 08:52:11;;;;;;;0.50;0.50;;;22.50;56.60;;;;;;5034909;28;20033;-35
2021/05/28 08:54:36;;;;;;;1.08;0.43;;;22.50;56.60;;;;;;5056699;28;20208;-35
2021/05/28 08:57:02;;;;;;;0.50;0.50;;;22.50;56.50;;;;;;5054962;28;20029;-35
2021/05/28 08:59:28;;;;;;;0.60;0.60;;;22.50;56.40;;;;;;5054446;28;20526;-34
2021/05/28 09:01:53;;;;;;;0.60;0.40;;;22.50;56.40;;;;;;5054949;28;20021;-37
2021/05/28 09:04:20;;;;;;;0.75;0.60;;;22.50;56.40;;;;;;5051061;28;20088;-35
2021/05/28 09:06:46;;;;;;;0.30;0.30;;;22.50;57.00;;;;;;5054086;28;20086;-34
2021/05/28 09:09:18;;;;;;;0.55;0.32;;;22.60;56.40;;;;;;5055949;28;20048;-34
2021/05/28 09:12:01;;;;;;;0.85;0.60;;;22.70;56.20;;;;;;5030660;28;20029;-35
2021/05/28 09:14:40;;;;;;;0.43;0.40;;;22.70;56.10;;;;;;5049029;28;20116;-35
2021/05/28 09:17:10;;;;;;;0.55;0.55;;;22.60;56.30;;;;;;5054407;28;20025;-36
2021/05/28 09:19:36;;;;;;;0.50;0.50;;;22.60;56.20;;;;;;5052249;28;20017;-34
2021/05/28 09:22:09;;;;;;;1.20;0.35;;;22.70;56.20;;;;;;5050851;28;20040;-34
2021/05/28 09:24:43;;;;;;;0.40;0.40;;;22.70;56.20;;;;;;5056015;28;20503;-36
2021/05/28 09:27:26;;;;;;;;;;;22.60;56.20;;;;;;5055628;28;20025;-35
2021/05/28 09:30:08;;;;;;;0.40;0.40;;;22.60;56.30;;;;;;5054270;28;20375;-35
2021/05/28 09:32:35;;;;;;;1.48;0.50;;;22.70;56.30;;;;;;5054212;28;20028;-35
2021/05/28 09:35:01;;;;;;;0.40;0.40;;;22.70;56.20;;;;;;5051787;28;20594;-36
2021/05/28 09:37:36;;;;;;;0.80;0.40;;;22.70;56.20;;;;;;5065285;28;20124;-35
2021/05/28 09:40:16;;;;;;;0.47;0.32;;;22.70;56.30;;;;;;5051278;28;20490;-39
2021/05/28 09:42:49;;;;;;;0.30;0.30;;;22.70;56.10;;;;;;5063343;28;20615;-35
2021/05/28 09:45:20;;;;;;;0.52;0.50;;;22.70;56.10;;;;;;5055456;28;20405;-35
2021/05/28 09:47:45;;;;;;;0.50;0.40;;;22.70;56.00;;;;;;5053795;28;20021;-34
2021/05/28 09:50:14;;;;;;;0.50;0.50;;;22.80;56.10;;;;;;5052657;28;20163;-34
2021/05/28 09:52:39;;;;;;;0.32;0.30;;;22.80;56.00;;;;;;5053320;28;20431;-34
2021/05/28 09:55:12;;;;;;;0.45;0.45;;;22.80;56.00;;;;;;5050068;28;20153;-35
2021/05/28 09:57:38;;;;;;;0.45;0.45;;;22.80;55.90;;;;;;5055493;28;20118;-35
2021/05/28 10:00:12;;;;;;;1.17;0.47;;;22.80;55.80;;;;;;5053228;28;20049;-35
2021/05/28 10:02:43;;;;;;;0.95;0.50;;;22.80;55.70;;;;;;5053739;28;20033;-36
2021/05/28 10:05:09;;;;;;;0.88;0.57;;;22.80;55.70;;;;;;5053458;28;20033;-35
2021/05/28 10:07:35;;;;;;;2.50;0.90;;;22.80;55.50;;;;;;5031654;28;20055;-35
2021/05/28 10:10:00;;;;;;;1.92;0.90;;;22.80;55.40;;;;;;5032637;28;20067;-31
2021/05/28 10:12:26;;;;;;;3.00;1.27;;;22.80;55.30;;;;;;5037389;28;20452;-36
2021/05/28 10:14:52;;;;;;;1.60;1.30;;;22.80;55.20;;;;;;5053200;28;20036;-36
2021/05/28 10:17:17;;;;;;;1.77;1.55;;;22.80;55.10;;;;;;5048412;28;20036;-35
2021/05/28 10:19:44;;;;;;;1.50;1.20;;;22.80;54.80;;;;;;5061800;28;20515;-35
2021/05/28 10:22:09;;;;;;;2.28;1.50;;;22.90;54.60;;;;;;5058043;28;20043;-35
2021/05/28 10:24:35;;;;;;;2.05;1.50;;;22.90;54.40;;;;;;5052700;28;20037;-36
2021/05/28 10:27:01;;;;;;;1.98;1.55;;;23.00;54.90;;;;;;5053136;28;20515;-35
2021/05/28 10:29:27;;;;;;;2.90;1.63;;;23.00;54.30;;;;;;5054459;28;20043;-36
2021/05/28 10:32:10;;;;;;;1.80;1.70;;;23.00;54.10;;;;;;5060871;28;20383;-35
2021/05/28 10:34:36;;;;;;;3.33;1.52;;;23.00;54.00;;;;;;5050110;28;20025;-35
2021/05/28 10:37:02;;;;;;;1.80;1.70;;;23.00;53.90;;;;;;5032254;28;20036;-35
2021/05/28 10:39:28;;;;;;;5.85;1.52;;;23.10;54.00;;;;;;5035901;28;20041;-35
2021/05/28 10:42:11;;;;;;;2.15;1.48;;;23.00;53.90;;;;;;5052500;28;20033;-35
2021/05/28 10:44:41;;;;;;;2.55;1.50;;;23.00;54.00;;;;;;5051971;28;20510;-34
2021/05/28 10:47:13;;;;;;;2.65;1.30;;;23.00;54.00;;;;;;5052472;28;20430;-36
2021/05/28 10:49:49;;;;;;;4.55;1.88;;;23.00;54.10;;;;;;5051233;28;20028;-36
2021/05/28 10:52:36;;;;;;;1.63;1.52;;;23.10;54.00;;;;;;5048318;28;20025;-42
2021/05/28 10:55:11;;;;;;;1.27;1.17;;;23.10;53.80;;;;;;5048146;28;20111;-36
2021/05/28 10:57:53;;;;;;;1.48;1.35;;;23.10;53.80;;;;;;5054368;28;20036;-36
2021/05/28 11:00:27;;;;;;;1.95;1.63;;;23.20;53.80;;;;;;5053296;28;20049;-37
2021/05/28 11:03:00;;;;;;;2.38;1.48;;;23.10;54.00;;;;;;5052519;28;20037;-36
2021/05/28 11:05:46;;;;;;;3.53;1.70;;;23.10;54.00;;;;;;5051058;28;20407;-37
2021/05/28 11:08:37;;;;;;;1.40;1.20;;;23.10;53.50;;;;;;5052333;28;20025;-37
2021/05/28 11:11:04;;;;;;;1.70;1.40;;;23.10;53.80;;;;;;5051389;28;20098;-35
2021/05/28 11:13:30;;;;;;;1.70;1.00;;;23.10;53.90;;;;;;5054149;28;20060;-36
2021/05/28 11:15:57;;;;;;;3.10;1.10;;;23.00;53.50;;;;;;5049990;28;20460;-36
2021/05/28 11:18:29;;;;;;;1.27;1.10;;;23.00;53.60;;;;;;5053816;28;20092;-36
2021/05/28 11:21:16;;;;;;;2.08;1.20;;;23.10;53.30;;;;;;5055962;28;20468;-35
2021/05/28 11:23:47;;;;;;;1.40;1.08;;;23.10;53.40;;;;;;5052372;28;20576;-35
2021/05/28 11:26:23;;;;;;;1.13;1.00;;;23.10;53.30;;;;;;5052436;28;20017;-36
2021/05/28 11:28:56;;;;;;;1.48;0.95;;;23.10;53.30;;;;;;5069326;28;20044;-36
2021/05/28 11:31:23;;;;;;;1.13;1.00;;;23.10;53.80;;;;;;5053288;28;20478;-36
2021/05/28 11:34:00;;;;;;;1.25;1.00;;;23.20;53.10;;;;;;5051886;28;20029;-35
2021/05/28 11:36:31;;;;;;;2.53;0.90;;;23.20;53.20;;;;;;5032922;28;20053;-36
2021/05/28 11:39:01;;;;;;;1.67;1.00;;;23.10;53.30;;;;;;5050573;28;20035;-36
2021/05/28 11:41:46;;;;;;;2.28;0.93;;;23.10;53.50;;;;;;5052410;28;20033;-36
2021/05/28 11:44:12;;;;;;;1.15;1.00;;;23.00;53.50;;;;;;5052134;28;20044;-36
2021/05/28 11:46:43;;;;;;;1.80;1.02;;;23.00;53.60;;;;;;5051375;28;20025;-36
2021/05/28 11:49:08;;;;;;;1.05;0.80;;;23.00;53.80;;;;;;5048440;28;20017;-36
2021/05/28 11:51:34;;;;;;;1.15;0.90;;;23.00;53.80;;;;;;5053641;28;20025;-35
2021/05/28 11:54:00;;;;;;;1.05;0.90;;;23.00;53.90;;;;;;5052317;28;20091;-36
2021/05/28 11:56:26;;;;;;;2.60;1.00;;;22.90;53.80;;;;;;5052258;28;20092;-35
2021/05/28 11:58:51;;;;;;;2.28;0.98;;;22.90;54.60;;;;;;5052020;28;20116;-35
2021/05/28 12:01:17;;;;;;;1.35;1.10;;;22.90;54.00;;;;;;5048091;28;20041;-36
2021/05/28 12:03:43;;;;;;;2.63;0.80;;;22.90;54.00;;;;;;5053245;28;20495;-35
2021/05/28 12:06:09;;;;;;;1.98;1.02;;;22.90;54.10;;;;;;5052252;28;20495;-36
2021/05/28 12:08:37;;;;;;;1.25;0.98;;;22.90;54.10;;;;;;5050389;28;20037;-36
2021/05/28 12:11:07;;;;;;;0.70;0.70;;;22.90;54.10;;;;;;5051799;28;20077;-36
2021/05/28 12:13:35;;;;;;;1.48;1.15;;;22.90;54.20;;;;;;5050878;28;20071;-35
2021/05/28 12:16:06;;;;;;;0.73;0.70;;;22.90;54.20;;;;;;5052880;28;20044;-36
2021/05/28 12:18:41;;;;;;;2.33;0.93;;;22.90;54.20;;;;;;5057321;28;20028;-36
2021/05/28 12:21:13;;;;;;;1.50;0.88;;;22.90;54.30;;;;;;5055100;28;20025;-36
2021/05/28 12:23:45;;;;;;;1.10;0.60;;;22.90;54.30;;;;;;5054087;28;20071;-36
2021/05/28 12:26:11;;;;;;;1.15;0.60;;;22.90;54.40;;;;;;5053890;28;20037;-36
2021/05/28 12:28:38;;;;;;;1.15;0.60;;;22.90;54.40;;;;;;5051169;28;20021;-35
2021/05/28 12:31:13;;;;;;;0.95;0.82;;;22.90;54.50;;;;;;5067047;28;20033;-36
2021/05/28 12:33:44;;;;;;;3.20;0.85;;;22.90;54.40;;;;;;5057108;28;20156;-36
2021/05/28 12:36:11;;;;;;;0.95;0.85;;;22.90;54.40;;;;;;5055876;28;20120;-36
2021/05/28 12:38:47;;;;;;;1.13;0.60;;;22.90;54.40;;;;;;5055393;28;20043;-35
2021/05/28 12:41:15;;;;;;;0.82;0.73;;;22.90;54.40;;;;;;5055235;28;20104;-37
2021/05/28 12:43:42;;;;;;;0.70;0.68;;;22.90;54.50;;;;;;5054280;28;20059;-36
2021/05/28 12:46:16;;;;;;;0.98;0.60;;;22.90;54.50;;;;;;5051196;28;20049;-36
2021/05/28 12:48:49;;;;;;;0.73;0.73;;;23.00;54.50;;;;;;5064332;28;20119;-35
2021/05/28 12:51:15;;;;;;;0.75;0.63;;;23.00;54.60;;;;;;5056032;28;20033;-36